sensor_id;sensor_type;location;lat;lon;timestamp;pressure;altitude;pressure_sealevel;temperature;humidity
54038;BME280;39954;48.844;9.726;2024-03-06T00:00:44;96096.09;;;3.03;100.00
54038;BME280;39954;48.844;9.726;2024-03-06T00:01:46;96097.03;;;3.01;100.00
54038;BME280;39954;48.844;9.726;2024-03-06T00:02:54;96097.03;;;3.01;100.00
54038;BME280;39954;48.844;9.726;2024-03-06T00:03:57;96110.69;;;3.01;100.00
54038;BME280;39954;48.844;9.726;2024-03-06T00:05:02;96104.66;;;3.02;100.00
54038;BME280;39954;48.844;9.726;2024-03-06T00:06:05;96099.53;;;3.02;100.00
54038;BME280;39954;48.844;9.726;2024-03-06T00:07:10;96103.75;;;3.05;100.00
54038;BME280;39954;48.844;9.726;2024-03-06T00:08:12;96103.00;;;3.01;100.00
54038;BME280;39954;48.844;9.726;2024-03-06T00:09:17;96101.91;;;3.10;100.00
54038;BME280;39954;48.844;9.726;2024-03-06T00:10:20;96096.78;;;3.10;100.00
54038;BME280;39954;48.844;9.726;2024-03-06T00:11:25;96099.31;;;3.11;100.00
54038;BME280;39954;48.844;9.726;2024-03-06T00:12:27;96098.47;;;3.11;100.00
54038;BME280;39954;48.844;9.726;2024-03-06T00:13:32;96105.28;;;3.12;100.00
54038;BME280;39954;48.844;9.726;2024-03-06T00:14:35;96100.06;;;3.15;100.00
54038;BME280;39954;48.844;9.726;2024-03-06T00:15:40;96095.91;;;3.11;100.00
54038;BME280;39954;48.844;9.726;2024-03-06T00:16:43;96099.41;;;3.07;100.00
54038;BME280;39954;48.844;9.726;2024-03-06T00:17:48;96101.03;;;3.11;100.00
54038;BME280;39954;48.844;9.726;2024-03-06T00:18:53;96106.28;;;3.06;100.00
54038;BME280;39954;48.844;9.726;2024-03-06T00:19:58;96107.13;;;3.07;100.00
54038;BME280;39954;48.844;9.726;2024-03-06T00:21:01;96109.78;;;3.04;100.00
54038;BME280;39954;48.844;9.726;2024-03-06T00:22:05;96109.88;;;3.01;100.00
54038;BME280;39954;48.844;9.726;2024-03-06T00:23:07;96113.28;;;3.01;100.00
54038;BME280;39954;48.844;9.726;2024-03-06T00:24:13;96105.66;;;2.98;100.00
54038;BME280;39954;48.844;9.726;2024-03-06T00:25:15;96129.59;;;2.99;100.00
54038;BME280;39954;48.844;9.726;2024-03-06T00:26:20;96119.38;;;2.97;100.00
54038;BME280;39954;48.844;9.726;2024-03-06T00:27:22;96123.63;;;2.98;100.00
54038;BME280;39954;48.844;9.726;2024-03-06T00:28:27;96121.13;;;2.95;100.00
54038;BME280;39954;48.844;9.726;2024-03-06T00:29:30;96121.09;;;2.97;100.00
54038;BME280;39954;48.844;9.726;2024-03-06T00:30:35;96119.41;;;2.96;100.00
54038;BME280;39954;48.844;9.726;2024-03-06T00:31:42;96113.28;;;3.01;100.00
54038;BME280;39954;48.844;9.726;2024-03-06T00:32:47;96114.09;;;3.02;100.00
54038;BME280;39954;48.844;9.726;2024-03-06T00:33:49;96106.47;;;3.00;100.00
54038;BME280;39954;48.844;9.726;2024-03-06T00:34:56;96115.81;;;3.03;100.00
54038;BME280;39954;48.844;9.726;2024-03-06T00:35:59;96108.81;;;3.08;100.00
54038;BME280;39954;48.844;9.726;2024-03-06T00:37:04;96116.44;;;3.11;100.00
54038;BME280;39954;48.844;9.726;2024-03-06T00:38:06;96110.50;;;3.09;100.00
54038;BME280;39954;48.844;9.726;2024-03-06T00:39:11;96112.25;;;3.07;100.00
54038;BME280;39954;48.844;9.726;2024-03-06T00:40:16;96116.56;;;3.06;100.00
54038;BME280;39954;48.844;9.726;2024-03-06T00:41:21;96114.94;;;3.02;100.00
54038;BME280;39954;48.844;9.726;2024-03-06T00:42:25;96120.16;;;2.99;100.00
54038;BME280;39954;48.844;9.726;2024-03-06T00:43:30;96118.50;;;2.98;100.00
54038;BME280;39954;48.844;9.726;2024-03-06T00:44:33;96119.38;;;2.97;100.00
54038;BME280;39954;48.844;9.726;2024-03-06T00:45:37;96121.88;;;3.00;100.00
54038;BME280;39954;48.844;9.726;2024-03-06T00:46:40;96123.59;;;3.00;100.00
54038;BME280;39954;48.844;9.726;2024-03-06T00:47:42;96122.69;;;3.01;100.00
54038;BME280;39954;48.844;9.726;2024-03-06T00:48:47;96123.34;;;3.09;100.00
54038;BME280;39954;48.844;9.726;2024-03-06T00:49:49;96120.84;;;3.06;100.00
54038;BME280;39954;48.844;9.726;2024-03-06T00:50:56;96117.31;;;3.10;100.00
54038;BME280;39954;48.844;9.726;2024-03-06T00:51:59;96118.22;;;3.07;100.00
54038;BME280;39954;48.844;9.726;2024-03-06T00:53:04;96122.44;;;3.10;100.00
54038;BME280;39954;48.844;9.726;2024-03-06T00:54:06;96114.81;;;3.08;100.00
54038;BME280;39954;48.844;9.726;2024-03-06T00:55:11;96118.28;;;3.06;100.00
54038;BME280;39954;48.844;9.726;2024-03-06T00:56:13;96119.06;;;3.08;100.00
54038;BME280;39954;48.844;9.726;2024-03-06T00:57:18;96118.28;;;3.06;100.00
54038;BME280;39954;48.844;9.726;2024-03-06T00:58:20;96116.44;;;3.11;100.00
54038;BME280;39954;48.844;9.726;2024-03-06T00:59:25;96123.28;;;3.10;100.00
54038;BME280;39954;48.844;9.726;2024-03-06T01:00:29;96125.06;;;3.08;100.00
54038;BME280;39954;48.844;9.726;2024-03-06T01:01:33;96124.22;;;3.08;100.00
54038;BME280;39954;48.844;9.726;2024-03-06T01:02:36;96121.69;;;3.06;100.00
54038;BME280;39954;48.844;9.726;2024-03-06T01:03:41;96124.22;;;3.08;100.00
54038;BME280;39954;48.844;9.726;2024-03-06T01:04:43;96126.75;;;3.09;100.00
54038;BME280;39954;48.844;9.726;2024-03-06T01:05:48;96124.22;;;3.08;100.00
54038;BME280;39954;48.844;9.726;2024-03-06T01:06:53;96125.09;;;3.07;100.00
54038;BME280;39954;48.844;9.726;2024-03-06T01:07:58;96132.00;;;3.05;100.00
54038;BME280;39954;48.844;9.726;2024-03-06T01:09:01;96126.84;;;3.06;100.00
54038;BME280;39954;48.844;9.726;2024-03-06T01:10:06;96128.41;;;3.12;100.00
54038;BME280;39954;48.844;9.726;2024-03-06T01:11:09;96128.50;;;3.07;100.00
54038;BME280;39954;48.844;9.726;2024-03-06T01:12:16;96121.69;;;3.06;100.00
54038;BME280;39954;48.844;9.726;2024-03-06T01:13:20;96126.91;;;3.03;100.00
54038;BME280;39954;48.844;9.726;2024-03-06T01:14:25;96131.22;;;3.03;100.00
54038;BME280;39954;48.844;9.726;2024-03-06T01:15:27;96125.22;;;3.02;100.00
54038;BME280;39954;48.844;9.726;2024-03-06T01:16:32;96129.50;;;3.02;100.00
54038;BME280;39954;48.844;9.726;2024-03-06T01:17:34;96125.28;;;3.01;100.00
54038;BME280;39954;48.844;9.726;2024-03-06T01:18:39;96122.63;;;3.04;100.00
54038;BME280;39954;48.844;9.726;2024-03-06T01:19:41;96118.38;;;3.03;100.00
54038;BME280;39954;48.844;9.726;2024-03-06T01:20:46;96128.66;;;3.01;100.00
54038;BME280;39954;48.844;9.726;2024-03-06T01:21:49;96127.00;;;3.00;100.00
54038;BME280;39954;48.844;9.726;2024-03-06T01:22:53;96120.16;;;2.99;100.00
54038;BME280;39954;48.844;9.726;2024-03-06T01:23:58;96121.03;;;3.00;100.00
54038;BME280;39954;48.844;9.726;2024-03-06T01:25:01;96126.16;;;3.00;100.00
54038;BME280;39954;48.844;9.726;2024-03-06T01:26:06;96127.00;;;3.00;100.00
54038;BME280;39954;48.844;9.726;2024-03-06T01:27:09;96126.16;;;3.00;100.00
54038;BME280;39954;48.844;9.726;2024-03-06T01:28:14;96121.03;;;3.00;100.00
54038;BME280;39954;48.844;9.726;2024-03-06T01:29:16;96129.59;;;2.99;100.00
54038;BME280;39954;48.844;9.726;2024-03-06T01:30:21;96127.91;;;2.98;100.00
54038;BME280;39954;48.844;9.726;2024-03-06T01:31:23;96126.22;;;2.97;100.00
54038;BME280;39954;48.844;9.726;2024-03-06T01:32:28;96127.91;;;2.98;100.00
54038;BME280;39954;48.844;9.726;2024-03-06T01:33:30;96126.19;;;2.98;100.00
54038;BME280;39954;48.844;9.726;2024-03-06T01:34:35;96126.22;;;2.97;100.00
54038;BME280;39954;48.844;9.726;2024-03-06T01:35:38;96122.78;;;2.98;100.00
54038;BME280;39954;48.844;9.726;2024-03-06T01:36:42;96121.13;;;2.95;100.00
54038;BME280;39954;48.844;9.726;2024-03-06T01:37:45;96123.72;;;2.94;100.00
54038;BME280;39954;48.844;9.726;2024-03-06T01:38:52;96122.06;;;2.92;100.00
54038;BME280;39954;48.844;9.726;2024-03-06T01:39:55;96123.78;;;2.92;100.00
54038;BME280;39954;48.844;9.726;2024-03-06T01:40:59;96119.56;;;2.89;100.00
54038;BME280;39954;48.844;9.726;2024-03-06T01:42:06;96110.97;;;2.90;100.00
54038;BME280;39954;48.844;9.726;2024-03-06T01:43:19;96110.16;;;2.88;100.00
54038;BME280;39954;48.844;9.726;2024-03-06T01:44:22;96114.47;;;2.88;100.00
54038;BME280;39954;48.844;9.726;2024-03-06T01:45:27;96109.38;;;2.86;100.00
54038;BME280;39954;48.844;9.726;2024-03-06T01:46:29;96111.97;;;2.86;100.00
54038;BME280;39954;48.844;9.726;2024-03-06T01:47:34;96112.81;;;2.85;100.00
54038;BME280;39954;48.844;9.726;2024-03-06T01:48:36;96117.94;;;2.85;100.00
54038;BME280;39954;48.844;9.726;2024-03-06T01:49:41;96119.66;;;2.86;100.00
54038;BME280;39954;48.844;9.726;2024-03-06T01:50:46;96119.66;;;2.86;100.00
54038;BME280;39954;48.844;9.726;2024-03-06T01:51:50;96117.19;;;2.83;100.00
54038;BME280;39954;48.844;9.726;2024-03-06T01:52:56;96124.88;;;2.83;100.00
54038;BME280;39954;48.844;9.726;2024-03-06T01:54:03;96117.19;;;2.83;100.00
54038;BME280;39954;48.844;9.726;2024-03-06T01:55:09;96120.56;;;2.84;100.00
54038;BME280;39954;48.844;9.726;2024-03-06T01:56:12;96122.34;;;2.82;100.00
54038;BME280;39954;48.844;9.726;2024-03-06T01:57:20;96120.59;;;2.82;100.00
54038;BME280;39954;48.844;9.726;2024-03-06T01:58:23;96124.78;;;2.86;100.00
54038;BME280;39954;48.844;9.726;2024-03-06T01:59:28;96115.16;;;2.95;100.00
54038;BME280;39954;48.844;9.726;2024-03-06T02:00:38;96114.34;;;2.94;100.00
54038;BME280;39954;48.844;9.726;2024-03-06T02:01:43;96109.97;;;2.96;100.00
54038;BME280;39954;48.844;9.726;2024-03-06T02:02:46;96110.03;;;2.95;100.00
54038;BME280;39954;48.844;9.726;2024-03-06T02:03:51;96118.66;;;2.92;100.00
54038;BME280;39954;48.844;9.726;2024-03-06T02:04:54;96116.13;;;2.90;100.00
54038;BME280;39954;48.844;9.726;2024-03-06T02:06:02;96110.94;;;2.92;100.00
54038;BME280;39954;48.844;9.726;2024-03-06T02:07:08;96116.03;;;2.94;100.00
54038;BME280;39954;48.844;9.726;2024-03-06T02:08:13;96120.22;;;2.98;100.00
54038;BME280;39954;48.844;9.726;2024-03-06T02:09:18;96120.25;;;2.96;100.00
54038;BME280;39954;48.844;9.726;2024-03-06T02:10:23;96116.84;;;2.96;100.00
54038;BME280;39954;48.844;9.726;2024-03-06T02:11:25;96121.97;;;2.96;100.00
54038;BME280;39954;48.844;9.726;2024-03-06T02:12:31;96116.00;;;2.95;100.00
54038;BME280;39954;48.844;9.726;2024-03-06T02:13:33;96105.69;;;2.97;100.00
54038;BME280;39954;48.844;9.726;2024-03-06T02:14:38;96123.63;;;2.98;100.00
54038;BME280;39954;48.844;9.726;2024-03-06T02:15:40;96121.09;;;2.97;100.00
54038;BME280;39954;48.844;9.726;2024-03-06T02:16:46;96109.75;;;3.05;100.00
54038;BME280;39954;48.844;9.726;2024-03-06T02:17:48;96119.25;;;3.02;100.00
54038;BME280;39954;48.844;9.726;2024-03-06T02:18:54;96112.44;;;3.01;100.00
54038;BME280;39954;48.844;9.726;2024-03-06T02:19:57;96117.50;;;3.02;100.00
54038;BME280;39954;48.844;9.726;2024-03-06T02:21:05;96114.09;;;3.02;100.00
54038;BME280;39954;48.844;9.726;2024-03-06T02:22:09;96109.88;;;2.99;100.00
54038;BME280;39954;48.844;9.726;2024-03-06T02:23:14;96121.06;;;2.98;100.00
54038;BME280;39954;48.844;9.726;2024-03-06T02:24:19;96113.28;;;3.01;100.00
54038;BME280;39954;48.844;9.726;2024-03-06T02:25:24;96118.47;;;3.00;100.00
54038;BME280;39954;48.844;9.726;2024-03-06T02:26:27;96110.59;;;3.06;100.00
54038;BME280;39954;48.844;9.726;2024-03-06T02:27:31;96109.59;;;3.10;100.00
54038;BME280;39954;48.844;9.726;2024-03-06T02:28:34;96108.56;;;3.17;100.00
54038;BME280;39954;48.844;9.726;2024-03-06T02:29:41;96110.34;;;3.13;100.00
54038;BME280;39954;48.844;9.726;2024-03-06T02:30:43;96117.31;;;3.10;100.00
54038;BME280;39954;48.844;9.726;2024-03-06T02:31:50;96112.16;;;3.11;100.00
54038;BME280;39954;48.844;9.726;2024-03-06T02:32:52;96110.50;;;3.09;100.00
54038;BME280;39954;48.844;9.726;2024-03-06T02:33:57;96106.94;;;3.13;100.00
54038;BME280;39954;48.844;9.726;2024-03-06T02:35:01;96113.94;;;3.08;100.00
54038;BME280;39954;48.844;9.726;2024-03-06T02:36:13;96114.75;;;3.10;100.00
54038;BME280;39954;48.844;9.726;2024-03-06T02:37:16;96115.59;;;3.10;100.00
54038;BME280;39954;48.844;9.726;2024-03-06T02:38:23;96117.41;;;3.07;100.00
54038;BME280;39954;48.844;9.726;2024-03-06T02:39:25;96113.16;;;3.06;100.00
54038;BME280;39954;48.844;9.726;2024-03-06T02:40:27;96119.16;;;3.05;100.00
54038;BME280;39954;48.844;9.726;2024-03-06T02:41:32;96111.53;;;3.02;100.00
54038;BME280;39954;48.844;9.726;2024-03-06T02:42:34;96110.75;;;3.00;100.00
54038;BME280;39954;48.844;9.726;2024-03-06T02:43:42;96104.72;;;3.01;100.00
54038;BME280;39954;48.844;9.726;2024-03-06T02:44:44;96107.38;;;2.98;100.00
54038;BME280;39954;48.844;9.726;2024-03-06T02:45:49;96109.13;;;2.97;100.00
54038;BME280;39954;48.844;9.726;2024-03-06T02:46:51;96103.66;;;3.08;100.00
54038;BME280;39954;48.844;9.726;2024-03-06T02:47:56;96104.44;;;3.11;100.00
54038;BME280;39954;48.844;9.726;2024-03-06T02:48:58;96104.63;;;3.05;100.00
54038;BME280;39954;48.844;9.726;2024-03-06T02:50:04;96105.47;;;3.04;100.00
54038;BME280;39954;48.844;9.726;2024-03-06T02:51:07;96108.09;;;3.03;100.00
54038;BME280;39954;48.844;9.726;2024-03-06T02:52:14;96102.16;;;3.01;100.00
54038;BME280;39954;48.844;9.726;2024-03-06T02:53:16;96108.19;;;3.00;100.00
54038;BME280;39954;48.844;9.726;2024-03-06T02:54:18;96104.81;;;2.98;100.00
54038;BME280;39954;48.844;9.726;2024-03-06T02:55:23;96102.25;;;2.98;100.00
54038;BME280;39954;48.844;9.726;2024-03-06T02:56:25;96098.78;;;2.99;100.00
54038;BME280;39954;48.844;9.726;2024-03-06T02:57:30;96100.53;;;2.97;100.00
54038;BME280;39954;48.844;9.726;2024-03-06T02:58:35;96102.25;;;2.98;100.00
54038;BME280;39954;48.844;9.726;2024-03-06T02:59:39;96103.09;;;2.97;100.00
54038;BME280;39954;48.844;9.726;2024-03-06T03:00:42;96097.97;;;2.97;100.00
54038;BME280;39954;48.844;9.726;2024-03-06T03:01:47;96100.53;;;2.97;100.00
54038;BME280;39954;48.844;9.726;2024-03-06T03:02:50;96098.88;;;2.96;100.00
54038;BME280;39954;48.844;9.726;2024-03-06T03:03:54;96101.41;;;2.97;100.00
54038;BME280;39954;48.844;9.726;2024-03-06T03:04:57;96099.69;;;2.98;100.00
54038;BME280;39954;48.844;9.726;2024-03-06T03:06:02;96097.13;;;2.98;100.00
54038;BME280;39954;48.844;9.726;2024-03-06T03:07:06;96100.50;;;2.98;100.00
54038;BME280;39954;48.844;9.726;2024-03-06T03:08:11;96097.97;;;2.97;100.00
54038;BME280;39954;48.844;9.726;2024-03-06T03:09:18;96103.09;;;2.98;100.00
54038;BME280;39954;48.844;9.726;2024-03-06T03:10:20;96103.91;;;2.99;100.00
54038;BME280;39954;48.844;9.726;2024-03-06T03:11:26;96103.09;;;2.97;100.00
54038;BME280;39954;48.844;9.726;2024-03-06T03:12:28;96102.25;;;2.98;100.00
54038;BME280;39954;48.844;9.726;2024-03-06T03:13:33;96098.88;;;2.96;100.00
54038;BME280;39954;48.844;9.726;2024-03-06T03:14:35;96099.72;;;2.96;100.00
54038;BME280;39954;48.844;9.726;2024-03-06T03:15:40;96098.03;;;2.95;100.00
54038;BME280;39954;48.844;9.726;2024-03-06T03:16:46;96099.75;;;2.95;100.00
54038;BME280;39954;48.844;9.726;2024-03-06T03:17:51;96112.59;;;2.95;100.00
54038;BME280;39954;48.844;9.726;2024-03-06T03:18:53;96109.22;;;2.92;100.00
54038;BME280;39954;48.844;9.726;2024-03-06T03:19:58;96102.41;;;2.91;100.00
54038;BME280;39954;48.844;9.726;2024-03-06T03:21:00;96099.88;;;2.90;100.00
54038;BME280;39954;48.844;9.726;2024-03-06T03:22:05;96105.03;;;2.88;100.00
54038;BME280;39954;48.844;9.726;2024-03-06T03:23:07;96106.75;;;2.89;100.00
54038;BME280;39954;48.844;9.726;2024-03-06T03:24:16;96106.75;;;2.88;100.00
54038;BME280;39954;48.844;9.726;2024-03-06T03:25:18;96108.50;;;2.87;100.00
54038;BME280;39954;48.844;9.726;2024-03-06T03:26:23;96117.88;;;2.88;100.00
54038;BME280;39954;48.844;9.726;2024-03-06T03:27:26;96114.44;;;2.89;100.00
54038;BME280;39954;48.844;9.726;2024-03-06T03:28:31;96117.00;;;2.89;100.00
54038;BME280;39954;48.844;9.726;2024-03-06T03:29:35;96114.44;;;2.89;100.00
54038;BME280;39954;48.844;9.726;2024-03-06T03:30:40;96117.03;;;2.88;100.00
54038;BME280;39954;48.844;9.726;2024-03-06T03:31:45;96123.00;;;2.88;100.00
54038;BME280;39954;48.844;9.726;2024-03-06T03:32:50;96126.38;;;2.90;100.00
54038;BME280;39954;48.844;9.726;2024-03-06T03:33:52;96123.00;;;2.88;100.00
54038;BME280;39954;48.844;9.726;2024-03-06T03:34:57;96119.59;;;2.88;100.00
54038;BME280;39954;48.844;9.726;2024-03-06T03:35:59;96123.00;;;2.88;100.00
54038;BME280;39954;48.844;9.726;2024-03-06T03:37:02;96128.13;;;2.88;100.00
54038;BME280;39954;48.844;9.726;2024-03-06T03:38:06;96129.84;;;2.89;100.00
54038;BME280;39954;48.844;9.726;2024-03-06T03:39:10;96122.13;;;2.89;100.00
54038;BME280;39954;48.844;9.726;2024-03-06T03:40:21;96130.69;;;2.90;100.00
54038;BME280;39954;48.844;9.726;2024-03-06T03:41:25;96129.94;;;2.86;100.00
54038;BME280;39954;48.844;9.726;2024-03-06T03:42:30;96131.59;;;2.87;100.00
54038;BME280;39954;48.844;9.726;2024-03-06T03:43:32;96132.44;;;2.88;100.00
54038;BME280;39954;48.844;9.726;2024-03-06T03:44:37;96125.63;;;2.87;100.00
54038;BME280;39954;48.844;9.726;2024-03-06T03:45:39;96130.72;;;2.88;100.00
54038;BME280;39954;48.844;9.726;2024-03-06T03:46:44;96137.53;;;2.89;100.00
54038;BME280;39954;48.844;9.726;2024-03-06T03:47:47;96130.69;;;2.90;100.00
54038;BME280;39954;48.844;9.726;2024-03-06T03:48:51;96134.97;;;2.89;100.00
54038;BME280;39954;48.844;9.726;2024-03-06T03:49:54;96129.84;;;2.89;100.00
54038;BME280;39954;48.844;9.726;2024-03-06T03:51:10;96138.41;;;2.88;100.00
54038;BME280;39954;48.844;9.726;2024-03-06T03:52:14;96133.28;;;2.88;100.00
54038;BME280;39954;48.844;9.726;2024-03-06T03:53:19;96132.44;;;2.88;100.00
54038;BME280;39954;48.844;9.726;2024-03-06T03:54:21;96134.09;;;2.90;100.00
54038;BME280;39954;48.844;9.726;2024-03-06T03:55:29;96138.34;;;2.91;100.00
54038;BME280;39954;48.844;9.726;2024-03-06T03:56:31;96136.66;;;2.90;100.00
54038;BME280;39954;48.844;9.726;2024-03-06T03:57:37;96140.13;;;2.89;100.00
54038;BME280;39954;48.844;9.726;2024-03-06T03:58:39;96130.50;;;2.96;100.00
54038;BME280;39954;48.844;9.726;2024-03-06T03:59:44;96141.63;;;2.97;100.00
54038;BME280;39954;48.844;9.726;2024-03-06T04:00:46;96137.34;;;2.97;100.00
54038;BME280;39954;48.844;9.726;2024-03-06T04:01:54;96141.69;;;2.95;100.00
54038;BME280;39954;48.844;9.726;2024-03-06T04:02:59;96143.25;;;3.01;100.00
54038;BME280;39954;48.844;9.726;2024-03-06T04:04:04;96133.00;;;2.99;100.00
54038;BME280;39954;48.844;9.726;2024-03-06T04:05:07;96148.47;;;2.98;100.00
54038;BME280;39954;48.844;9.726;2024-03-06T04:06:10;96141.63;;;2.97;100.00
54038;BME280;39954;48.844;9.726;2024-03-06T04:07:15;96142.50;;;2.96;100.00
54038;BME280;39954;48.844;9.726;2024-03-06T04:08:18;96142.50;;;2.96;100.00
54038;BME280;39954;48.844;9.726;2024-03-06T04:09:22;96146.81;;;2.95;100.00
54038;BME280;39954;48.844;9.726;2024-03-06T04:10:25;96154.53;;;2.94;100.00
54038;BME280;39954;48.844;9.726;2024-03-06T04:11:32;96146.84;;;2.94;100.00
54038;BME280;39954;48.844;9.726;2024-03-06T04:12:35;96147.72;;;2.94;100.00
54038;BME280;39954;48.844;9.726;2024-03-06T04:13:41;96146.84;;;2.94;100.00
54038;BME280;39954;48.844;9.726;2024-03-06T04:14:43;96146.84;;;2.94;100.00
54038;BME280;39954;48.844;9.726;2024-03-06T04:15:48;96147.72;;;2.92;100.00
54038;BME280;39954;48.844;9.726;2024-03-06T04:16:50;96144.34;;;2.90;100.00
54038;BME280;39954;48.844;9.726;2024-03-06T04:17:55;96146.91;;;2.90;100.00
54038;BME280;39954;48.844;9.726;2024-03-06T04:18:57;96146.97;;;2.89;100.00
54038;BME280;39954;48.844;9.726;2024-03-06T04:20:02;96152.94;;;2.89;100.00
54038;BME280;39954;48.844;9.726;2024-03-06T04:21:06;96152.03;;;2.92;100.00
54038;BME280;39954;48.844;9.726;2024-03-06T04:22:12;96146.91;;;2.90;100.00
54038;BME280;39954;48.844;9.726;2024-03-06T04:23:15;96152.06;;;2.90;100.00
54038;BME280;39954;48.844;9.726;2024-03-06T04:24:20;96153.81;;;2.88;100.00
54038;BME280;39954;48.844;9.726;2024-03-06T04:25:22;96164.94;;;2.89;100.00
54038;BME280;39954;48.844;9.726;2024-03-06T04:26:28;96160.66;;;2.89;100.00
54038;BME280;39954;48.844;9.726;2024-03-06T04:27:33;96167.44;;;2.92;100.00
54038;BME280;39954;48.844;9.726;2024-03-06T04:28:38;96167.44;;;2.90;100.00
54038;BME280;39954;48.844;9.726;2024-03-06T04:29:40;96173.44;;;2.91;100.00
54038;BME280;39954;48.844;9.726;2024-03-06T04:30:42;96166.59;;;2.91;100.00
54038;BME280;39954;48.844;9.726;2024-03-06T04:31:47;96162.31;;;2.90;100.00
54038;BME280;39954;48.844;9.726;2024-03-06T04:32:49;96164.06;;;2.90;100.00
54038;BME280;39954;48.844;9.726;2024-03-06T04:33:54;96170.03;;;2.90;100.00
54038;BME280;39954;48.844;9.726;2024-03-06T04:34:56;96169.16;;;2.91;100.00
54038;BME280;39954;48.844;9.726;2024-03-06T04:36:02;96174.28;;;2.91;100.00
54038;BME280;39954;48.844;9.726;2024-03-06T04:37:05;96176.06;;;2.89;100.00
54038;BME280;39954;48.844;9.726;2024-03-06T04:38:10;96172.59;;;2.90;100.00
54038;BME280;39954;48.844;9.726;2024-03-06T04:39:12;96177.72;;;2.90;100.00
54038;BME280;39954;48.844;9.726;2024-03-06T04:40:17;96176.88;;;2.90;100.00
54038;BME280;39954;48.844;9.726;2024-03-06T04:41:21;96173.44;;;2.91;100.00
54038;BME280;39954;48.844;9.726;2024-03-06T04:42:26;96179.47;;;2.88;100.00
54038;BME280;39954;48.844;9.726;2024-03-06T04:43:31;96184.59;;;2.88;100.00
54038;BME280;39954;48.844;9.726;2024-03-06T04:44:36;96184.59;;;2.88;100.00
54038;BME280;39954;48.844;9.726;2024-03-06T04:45:39;96183.69;;;2.91;100.00
54038;BME280;39954;48.844;9.726;2024-03-06T04:46:43;96185.41;;;2.90;100.00
54038;BME280;39954;48.844;9.726;2024-03-06T04:47:45;96182.84;;;2.90;100.00
54038;BME280;39954;48.844;9.726;2024-03-06T04:48:50;96191.41;;;2.91;100.00
54038;BME280;39954;48.844;9.726;2024-03-06T04:49:52;96187.13;;;2.91;100.00
54038;BME280;39954;48.844;9.726;2024-03-06T04:50:55;96183.69;;;2.91;100.00
54038;BME280;39954;48.844;9.726;2024-03-06T04:52:00;96181.19;;;2.89;100.00
54038;BME280;39954;48.844;9.726;2024-03-06T04:53:03;96182.03;;;2.90;100.00
54038;BME280;39954;48.844;9.726;2024-03-06T04:54:08;96198.25;;;2.90;100.00
54038;BME280;39954;48.844;9.726;2024-03-06T04:55:10;96189.69;;;2.91;100.00
54038;BME280;39954;48.844;9.726;2024-03-06T04:56:16;96189.69;;;2.91;100.00
54038;BME280;39954;48.844;9.726;2024-03-06T04:57:21;96188.81;;;2.92;100.00
54038;BME280;39954;48.844;9.726;2024-03-06T04:58:25;96189.63;;;2.95;100.00
54038;BME280;39954;48.844;9.726;2024-03-06T04:59:31;96196.34;;;2.99;100.00
54038;BME280;39954;48.844;9.726;2024-03-06T05:00:35;96189.47;;;3.01;100.00
54038;BME280;39954;48.844;9.726;2024-03-06T05:01:38;96199.81;;;2.98;100.00
54038;BME280;39954;48.844;9.726;2024-03-06T05:02:42;96194.66;;;2.98;100.00
54038;BME280;39954;48.844;9.726;2024-03-06T05:03:59;96192.84;;;3.03;100.00
54038;BME280;39954;48.844;9.726;2024-03-06T05:05:19;96191.13;;;3.02;100.00
54038;BME280;39954;48.844;9.726;2024-03-06T05:06:35;96196.19;;;3.05;100.00
54038;BME280;39954;48.844;9.726;2024-03-06T05:07:54;96196.19;;;3.05;100.00
54038;BME280;39954;48.844;9.726;2024-03-06T05:09:12;96202.31;;;2.99;100.00
54038;BME280;39954;48.844;9.726;2024-03-06T05:10:30;96201.63;;;2.94;100.00
54038;BME280;39954;48.844;9.726;2024-03-06T05:11:48;96200.66;;;2.98;100.00
54038;BME280;39954;48.844;9.726;2024-03-06T05:13:07;96200.66;;;2.98;100.00
54038;BME280;39954;48.844;9.726;2024-03-06T05:14:23;96205.03;;;2.95;100.00
54038;BME280;39954;48.844;9.726;2024-03-06T05:15:44;96213.59;;;2.94;100.00
54038;BME280;39954;48.844;9.726;2024-03-06T05:17:00;96203.22;;;2.97;100.00
54038;BME280;39954;48.844;9.726;2024-03-06T05:18:19;96205.81;;;2.97;100.00
54038;BME280;39954;48.844;9.726;2024-03-06T05:19:35;96216.22;;;2.90;100.00
54038;BME280;39954;48.844;9.726;2024-03-06T05:20:54;96199.88;;;2.95;100.00
54038;BME280;39954;48.844;9.726;2024-03-06T05:22:10;96201.72;;;2.89;100.00
54038;BME280;39954;48.844;9.726;2024-03-06T05:23:29;96201.63;;;2.92;100.00
54038;BME280;39954;48.844;9.726;2024-03-06T05:24:45;96206.78;;;2.92;100.00
54038;BME280;39954;48.844;9.726;2024-03-06T05:26:04;96220.59;;;2.87;100.00
54038;BME280;39954;48.844;9.726;2024-03-06T05:27:20;96212.97;;;2.84;100.00
54038;BME280;39954;48.844;9.726;2024-03-06T05:28:39;96214.78;;;2.80;100.00
54038;BME280;39954;48.844;9.726;2024-03-06T05:29:55;96219.03;;;2.81;100.00
54038;BME280;39954;48.844;9.726;2024-03-06T05:31:20;96226.72;;;2.81;100.00
54038;BME280;39954;48.844;9.726;2024-03-06T05:32:36;96220.78;;;2.79;100.00
54038;BME280;39954;48.844;9.726;2024-03-06T05:33:55;96229.38;;;2.78;100.00
54038;BME280;39954;48.844;9.726;2024-03-06T05:35:11;96224.25;;;2.78;100.00
54038;BME280;39954;48.844;9.726;2024-03-06T05:36:29;96223.34;;;2.79;100.00
54038;BME280;39954;48.844;9.726;2024-03-06T05:37:45;96228.47;;;2.79;100.00
54038;BME280;39954;48.844;9.726;2024-03-06T05:39:04;96228.47;;;2.79;100.00
54038;BME280;39954;48.844;9.726;2024-03-06T05:40:22;96229.44;;;2.75;100.00
54038;BME280;39954;48.844;9.726;2024-03-06T05:41:41;96232.81;;;2.77;100.00
54038;BME280;39954;48.844;9.726;2024-03-06T05:42:57;96225.91;;;2.79;100.00
54038;BME280;39954;48.844;9.726;2024-03-06T05:44:16;96231.03;;;2.79;100.00
54038;BME280;39954;48.844;9.726;2024-03-06T05:45:32;96231.03;;;2.79;100.00
54038;BME280;39954;48.844;9.726;2024-03-06T05:46:53;96230.22;;;2.77;100.00
54038;BME280;39954;48.844;9.726;2024-03-06T05:48:10;96235.34;;;2.79;100.00